sensor_id;sensor_type;location;lat;lon;timestamp;pressure;altitude;pressure_sealevel;temperature
77728;BMP280;68312;53.502;10.030;2023-07-09T00:02:22;102258.56;;;17.31
77728;BMP280;68312;53.502;10.030;2023-07-09T00:04:49;102248.09;;;17.26
77728;BMP280;68312;53.502;10.030;2023-07-09T00:07:19;102249.97;;;17.25
77728;BMP280;68312;53.502;10.030;2023-07-09T00:09:49;102248.78;;;17.23
77728;BMP280;68312;53.502;10.030;2023-07-09T00:12:16;102258.03;;;17.17
77728;BMP280;68312;53.502;10.030;2023-07-09T00:14:44;102257.00;;;17.10
77728;BMP280;68312;53.502;10.030;2023-07-09T00:17:11;102252.78;;;17.09
77728;BMP280;68312;53.502;10.030;2023-07-09T00:19:44;102256.66;;;17.11
77728;BMP280;68312;53.502;10.030;2023-07-09T00:22:19;102255.56;;;17.12
77728;BMP280;68312;53.502;10.030;2023-07-09T00:24:51;102254.66;;;17.08
77728;BMP280;68312;53.502;10.030;2023-07-09T00:27:18;102264.72;;;17.03
77728;BMP280;68312;53.502;10.030;2023-07-09T00:29:46;102263.63;;;16.95
77728;BMP280;68312;53.502;10.030;2023-07-09T00:32:17;102255.53;;;16.92
77728;BMP280;68312;53.502;10.030;2023-07-09T00:34:45;102253.84;;;16.87
77728;BMP280;68312;53.502;10.030;2023-07-09T00:37:19;102264.34;;;16.84
77728;BMP280;68312;53.502;10.030;2023-07-09T00:39:47;102267.50;;;16.78
77728;BMP280;68312;53.502;10.030;2023-07-09T00:42:15;102268.03;;;16.71
77728;BMP280;68312;53.502;10.030;2023-07-09T00:44:52;102267.84;;;16.68
77728;BMP280;68312;53.502;10.030;2023-07-09T00:47:31;102266.63;;;16.65
77728;BMP280;68312;53.502;10.030;2023-07-09T00:50:40;102267.84;;;16.68
77728;BMP280;68312;53.502;10.030;2023-07-09T00:53:25;102262.28;;;16.61
77728;BMP280;68312;53.502;10.030;2023-07-09T00:56:02;102257.91;;;16.57
77728;BMP280;68312;53.502;10.030;2023-07-09T00:58:34;102258.25;;;16.55
77728;BMP280;68312;53.502;10.030;2023-07-09T01:01:08;102258.25;;;16.55
77728;BMP280;68312;53.502;10.030;2023-07-09T01:03:40;102261.38;;;16.49
77728;BMP280;68312;53.502;10.030;2023-07-09T01:06:10;102261.88;;;16.42
77728;BMP280;68312;53.502;10.030;2023-07-09T01:08:39;102252.56;;;16.36
77728;BMP280;68312;53.502;10.030;2023-07-09T01:11:19;102258.78;;;16.32
77728;BMP280;68312;53.502;10.030;2023-07-09T01:13:48;102244.44;;;16.33
77728;BMP280;68312;53.502;10.030;2023-07-09T01:16:16;102250.19;;;16.35
77728;BMP280;68312;53.502;10.030;2023-07-09T01:18:52;102240.22;;;16.32
77728;BMP280;68312;53.502;10.030;2023-07-09T01:21:18;102243.84;;;16.28
77728;BMP280;68312;53.502;10.030;2023-07-09T01:23:45;102242.00;;;16.20
77728;BMP280;68312;53.502;10.030;2023-07-09T01:26:14;102244.94;;;16.18
77728;BMP280;68312;53.502;10.030;2023-07-09T01:28:41;102249.22;;;16.11
77728;BMP280;68312;53.502;10.030;2023-07-09T01:31:09;102245.63;;;16.07
77728;BMP280;68312;53.502;10.030;2023-07-09T01:33:37;102237.50;;;16.04
77728;BMP280;68312;53.502;10.030;2023-07-09T01:36:05;102241.91;;;16.00
77728;BMP280;68312;53.502;10.030;2023-07-09T01:38:32;102242.69;;;16.00
77728;BMP280;68312;53.502;10.030;2023-07-09T01:40:59;102243.28;;;15.97
77728;BMP280;68312;53.502;10.030;2023-07-09T01:43:26;102249.88;;;15.91
77728;BMP280;68312;53.502;10.030;2023-07-09T01:45:53;102248.31;;;15.90
77728;BMP280;68312;53.502;10.030;2023-07-09T01:48:23;102250.63;;;15.92
77728;BMP280;68312;53.502;10.030;2023-07-09T01:50:51;102252.06;;;15.89
77728;BMP280;68312;53.502;10.030;2023-07-09T01:53:21;102252.84;;;15.90
77728;BMP280;68312;53.502;10.030;2023-07-09T01:55:51;102263.13;;;15.91
77728;BMP280;68312;53.502;10.030;2023-07-09T01:58:17;102261.84;;;15.89
77728;BMP280;68312;53.502;10.030;2023-07-09T02:00:43;102261.25;;;15.83
77728;BMP280;68312;53.502;10.030;2023-07-09T02:03:10;102255.03;;;15.79
77728;BMP280;68312;53.502;10.030;2023-07-09T02:05:36;102248.31;;;15.74
77728;BMP280;68312;53.502;10.030;2023-07-09T02:11:29;102249.13;;;15.66
77728;BMP280;68312;53.502;10.030;2023-07-09T02:13:55;102248.00;;;15.67
77728;BMP280;68312;53.502;10.030;2023-07-09T02:16:21;102232.44;;;15.65
77728;BMP280;68312;53.502;10.030;2023-07-09T02:18:47;102241.50;;;15.64
77728;BMP280;68312;53.502;10.030;2023-07-09T02:21:12;102236.50;;;15.63
77728;BMP280;68312;53.502;10.030;2023-07-09T02:23:38;102243.34;;;15.64
77728;BMP280;68312;53.502;10.030;2023-07-09T02:26:03;102234.13;;;15.61
77728;BMP280;68312;53.502;10.030;2023-07-09T02:28:29;102249.41;;;15.56
77728;BMP280;68312;53.502;10.030;2023-07-09T02:30:55;102254.09;;;15.51
77728;BMP280;68312;53.502;10.030;2023-07-09T02:33:20;102246.47;;;15.49
77728;BMP280;68312;53.502;10.030;2023-07-09T02:35:47;102246.31;;;15.46
77728;BMP280;68312;53.502;10.030;2023-07-09T02:38:13;102248.31;;;15.40
77728;BMP280;68312;53.502;10.030;2023-07-09T02:40:39;102255.81;;;15.38
77728;BMP280;68312;53.502;10.030;2023-07-09T02:43:04;102252.53;;;15.33
77728;BMP280;68312;53.502;10.030;2023-07-09T02:45:30;102246.16;;;15.34
77728;BMP280;68312;53.502;10.030;2023-07-09T02:47:56;102237.59;;;15.37
77728;BMP280;68312;53.502;10.030;2023-07-09T02:50:21;102244.91;;;15.48
77728;BMP280;68312;53.502;10.030;2023-07-09T02:52:46;102242.75;;;15.50
77728;BMP280;68312;53.502;10.030;2023-07-09T02:55:13;102241.50;;;15.48
77728;BMP280;68312;53.502;10.030;2023-07-09T02:57:38;102244.28;;;15.43
77728;BMP280;68312;53.502;10.030;2023-07-09T03:00:05;102237.28;;;15.38
77728;BMP280;68312;53.502;10.030;2023-07-09T03:02:31;102244.28;;;15.34
77728;BMP280;68312;53.502;10.030;2023-07-09T03:04:56;102244.91;;;15.31
77728;BMP280;68312;53.502;10.030;2023-07-09T03:07:22;102255.31;;;15.28
77728;BMP280;68312;53.502;10.030;2023-07-09T03:09:47;102249.88;;;15.24
77728;BMP280;68312;53.502;10.030;2023-07-09T03:12:13;102255.47;;;15.23
77728;BMP280;68312;53.502;10.030;2023-07-09T03:14:38;102251.88;;;15.19
77728;BMP280;68312;53.502;10.030;2023-07-09T03:17:04;102249.09;;;15.16
77728;BMP280;68312;53.502;10.030;2023-07-09T03:19:29;102250.16;;;15.15
77728;BMP280;68312;53.502;10.030;2023-07-09T03:21:55;102254.38;;;15.16
77728;BMP280;68312;53.502;10.030;2023-07-09T03:24:21;102262.34;;;15.16
77728;BMP280;68312;53.502;10.030;2023-07-09T03:26:47;102259.19;;;15.14
77728;BMP280;68312;53.502;10.030;2023-07-09T03:29:14;102260.63;;;15.11
77728;BMP280;68312;53.502;10.030;2023-07-09T03:31:39;102262.16;;;15.12
77728;BMP280;68312;53.502;10.030;2023-07-09T03:34:05;102265.09;;;15.11
77728;BMP280;68312;53.502;10.030;2023-07-09T03:36:30;102263.56;;;15.10
77728;BMP280;68312;53.502;10.030;2023-07-09T03:38:57;102276.00;;;15.09
77728;BMP280;68312;53.502;10.030;2023-07-09T03:41:22;102276.78;;;15.10
77728;BMP280;68312;53.502;10.030;2023-07-09T03:43:47;102269.47;;;15.07
77728;BMP280;68312;53.502;10.030;2023-07-09T03:46:15;102274.44;;;15.08
77728;BMP280;68312;53.502;10.030;2023-07-09T03:48:40;102270.72;;;15.09
77728;BMP280;68312;53.502;10.030;2023-07-09T03:51:06;102271.34;;;15.06
77728;BMP280;68312;53.502;10.030;2023-07-09T03:53:31;102273.38;;;15.09
77728;BMP280;68312;53.502;10.030;2023-07-09T03:55:57;102278.34;;;15.11
77728;BMP280;68312;53.502;10.030;2023-07-09T03:58:25;102265.59;;;15.13
77728;BMP280;68312;53.502;10.030;2023-07-09T04:00:51;102271.97;;;15.12
77728;BMP280;68312;53.502;10.030;2023-07-09T04:03:17;102272.91;;;15.16
77728;BMP280;68312;53.502;10.030;2023-07-09T04:05:42;102273.06;;;15.19
77728;BMP280;68312;53.502;10.030;2023-07-09T04:08:08;102277.75;;;15.22
77728;BMP280;68312;53.502;10.030;2023-07-09T04:10:34;102275.88;;;15.23
77728;BMP280;68312;53.502;10.030;2023-07-09T04:13:00;102273.25;;;15.23
77728;BMP280;68312;53.502;10.030;2023-07-09T04:15:26;102279.00;;;15.24
77728;BMP280;68312;53.502;10.030;2023-07-09T04:17:54;102272.16;;;15.24
77728;BMP280;68312;53.502;10.030;2023-07-09T04:20:19;102273.25;;;15.23
77728;BMP280;68312;53.502;10.030;2023-07-09T04:22:45;102273.25;;;15.23
77728;BMP280;68312;53.502;10.030;2023-07-09T04:25:11;102277.75;;;15.22
77728;BMP280;68312;53.502;10.030;2023-07-09T04:27:38;102277.75;;;15.22
77728;BMP280;68312;53.502;10.030;2023-07-09T04:30:05;102280.53;;;15.25
77728;BMP280;68312;53.502;10.030;2023-07-09T04:32:34;102277.59;;;15.27
77728;BMP280;68312;53.502;10.030;2023-07-09T04:35:02;102282.59;;;15.28
77728;BMP280;68312;53.502;10.030;2023-07-09T04:37:28;102274.66;;;15.28
77728;BMP280;68312;53.502;10.030;2023-07-09T04:39:53;102279.03;;;15.33
77728;BMP280;68312;53.502;10.030;2023-07-09T04:42:18;102270.91;;;15.38
77728;BMP280;68312;53.502;10.030;2023-07-09T04:44:45;102265.63;;;15.46
77728;BMP280;68312;53.502;10.030;2023-07-09T04:47:11;102263.28;;;15.53
77728;BMP280;68312;53.502;10.030;2023-07-09T04:49:39;102258.34;;;15.60
77728;BMP280;68312;53.502;10.030;2023-07-09T04:52:05;102260.81;;;15.65
77728;BMP280;68312;53.502;10.030;2023-07-09T04:54:31;102266.56;;;15.75
77728;BMP280;68312;53.502;10.030;2023-07-09T04:56:58;102266.25;;;15.85
77728;BMP280;68312;53.502;10.030;2023-07-09T04:59:23;102267.00;;;16.02
77728;BMP280;68312;53.502;10.030;2023-07-09T05:01:49;102260.41;;;16.16
77728;BMP280;68312;53.502;10.030;2023-07-09T05:04:16;102263.03;;;16.25
77728;BMP280;68312;53.502;10.030;2023-07-09T05:06:41;102258.03;;;16.32
77728;BMP280;68312;53.502;10.030;2023-07-09T05:09:07;102269.69;;;16.39
77728;BMP280;68312;53.502;10.030;2023-07-09T05:11:35;102274.75;;;16.52
77728;BMP280;68312;53.502;10.030;2023-07-09T05:14:02;102276.13;;;16.66
77728;BMP280;68312;53.502;10.030;2023-07-09T05:16:28;102282.03;;;16.80
77728;BMP280;68312;53.502;10.030;2023-07-09T05:18:54;102275.22;;;16.91
77728;BMP280;68312;53.502;10.030;2023-07-09T05:21:20;102273.75;;;17.02
77728;BMP280;68312;53.502;10.030;2023-07-09T05:23:45;102269.16;;;17.11
77728;BMP280;68312;53.502;10.030;2023-07-09T05:26:11;102270.03;;;17.23
77728;BMP280;68312;53.502;10.030;2023-07-09T05:28:36;102263.19;;;17.34
77728;BMP280;68312;53.502;10.030;2023-07-09T05:31:02;102266.53;;;17.42
77728;BMP280;68312;53.502;10.030;2023-07-09T05:33:28;102254.13;;;17.55
77728;BMP280;68312;53.502;10.030;2023-07-09T05:35:54;102248.53;;;17.68
77728;BMP280;68312;53.502;10.030;2023-07-09T05:38:19;102244.59;;;17.86
77728;BMP280;68312;53.502;10.030;2023-07-09T05:40:45;102250.41;;;17.99
77728;BMP280;68312;53.502;10.030;2023-07-09T05:43:10;102242.97;;;18.17
77728;BMP280;68312;53.502;10.030;2023-07-09T05:45:38;102253.75;;;18.32
77728;BMP280;68312;53.502;10.030;2023-07-09T05:48:04;102253.06;;;18.46
77728;BMP280;68312;53.502;10.030;2023-07-09T05:50:33;102262.94;;;18.58
77728;BMP280;68312;53.502;10.030;2023-07-09T05:53:00;102265.03;;;18.64
77728;BMP280;68312;53.502;10.030;2023-07-09T05:55:26;102258.16;;;18.75
77728;BMP280;68312;53.502;10.030;2023-07-09T05:57:52;102256.94;;;18.84
77728;BMP280;68312;53.502;10.030;2023-07-09T06:00:19;102251.91;;;18.95
77728;BMP280;68312;53.502;10.030;2023-07-09T06:02:47;102252.88;;;19.14
77728;BMP280;68312;53.502;10.030;2023-07-09T06:05:13;102250.13;;;19.25
77728;BMP280;68312;53.502;10.030;2023-07-09T06:07:39;102244.75;;;19.37
77728;BMP280;68312;53.502;10.030;2023-07-09T06:10:05;102249.69;;;19.50
77728;BMP280;68312;53.502;10.030;2023-07-09T06:12:33;102250.00;;;19.61
77728;BMP280;68312;53.502;10.030;2023-07-09T06:14:58;102249.94;;;19.73
77728;BMP280;68312;53.502;10.030;2023-07-09T06:17:24;102253.63;;;19.83
77728;BMP280;68312;53.502;10.030;2023-07-09T06:19:49;102250.09;;;19.95
77728;BMP280;68312;53.502;10.030;2023-07-09T06:22:14;102247.63;;;20.02
77728;BMP280;68312;53.502;10.030;2023-07-09T06:24:40;102246.13;;;20.19
77728;BMP280;68312;53.502;10.030;2023-07-09T06:27:05;102251.44;;;20.34
77728;BMP280;68312;53.502;10.030;2023-07-09T06:29:31;102245.88;;;20.39
77728;BMP280;68312;53.502;10.030;2023-07-09T06:31:57;102248.41;;;20.51
77728;BMP280;68312;53.502;10.030;2023-07-09T06:34:22;102260.81;;;20.59
77728;BMP280;68312;53.502;10.030;2023-07-09T06:40:29;102263.75;;;20.88
77728;BMP280;68312;53.502;10.030;2023-07-09T06:42:54;102251.66;;;20.94
77728;BMP280;68312;53.502;10.030;2023-07-09T06:45:20;102258.06;;;21.08
77728;BMP280;68312;53.502;10.030;2023-07-09T06:47:46;102259.09;;;21.22
77728;BMP280;68312;53.502;10.030;2023-07-09T06:50:12;102266.59;;;21.35
77728;BMP280;68312;53.502;10.030;2023-07-09T06:52:37;102263.47;;;21.52
77728;BMP280;68312;53.502;10.030;2023-07-09T06:55:03;102259.03;;;21.59
77728;BMP280;68312;53.502;10.030;2023-07-09T06:57:29;102252.50;;;21.79
77728;BMP280;68312;53.502;10.030;2023-07-09T06:59:54;102255.81;;;21.95
77728;BMP280;68312;53.502;10.030;2023-07-09T07:02:20;102253.00;;;22.10
77728;BMP280;68312;53.502;10.030;2023-07-09T07:04:45;102254.44;;;22.30
77728;BMP280;68312;53.502;10.030;2023-07-09T07:07:11;102256.59;;;22.46
77728;BMP280;68312;53.502;10.030;2023-07-09T07:09:36;102243.84;;;22.65
77728;BMP280;68312;53.502;10.030;2023-07-09T07:12:02;102246.69;;;22.79
77728;BMP280;68312;53.502;10.030;2023-07-09T07:14:28;102239.06;;;22.81
77728;BMP280;68312;53.502;10.030;2023-07-09T07:16:56;102243.88;;;22.98
77728;BMP280;68312;53.502;10.030;2023-07-09T07:19:23;102236.00;;;23.15
77728;BMP280;68312;53.502;10.030;2023-07-09T07:21:48;102236.91;;;23.29
77728;BMP280;68312;53.502;10.030;2023-07-09T07:24:14;102238.50;;;23.37
77728;BMP280;68312;53.502;10.030;2023-07-09T07:26:39;102247.41;;;23.48
77728;BMP280;68312;53.502;10.030;2023-07-09T07:29:05;102250.91;;;23.52
77728;BMP280;68312;53.502;10.030;2023-07-09T07:31:33;102243.22;;;23.47
77728;BMP280;68312;53.502;10.030;2023-07-09T07:33:58;102254.94;;;23.71
77728;BMP280;68312;53.502;10.030;2023-07-09T07:36:24;102240.53;;;23.96
77728;BMP280;68312;53.502;10.030;2023-07-09T07:38:50;102243.25;;;24.06
77728;BMP280;68312;53.502;10.030;2023-07-09T07:41:15;102237.66;;;24.25
77728;BMP280;68312;53.502;10.030;2023-07-09T07:43:41;102233.47;;;24.38
77728;BMP280;68312;53.502;10.030;2023-07-09T07:46:06;102236.28;;;24.62
77728;BMP280;68312;53.502;10.030;2023-07-09T07:48:33;102239.78;;;24.79
77728;BMP280;68312;53.502;10.030;2023-07-09T07:51:02;102237.16;;;25.07
77728;BMP280;68312;53.502;10.030;2023-07-09T07:53:29;102236.81;;;25.32
77728;BMP280;68312;53.502;10.030;2023-07-09T07:55:56;102237.22;;;25.41
77728;BMP280;68312;53.502;10.030;2023-07-09T07:58:22;102241.81;;;25.51
77728;BMP280;68312;53.502;10.030;2023-07-09T08:00:48;102243.34;;;25.62
77728;BMP280;68312;53.502;10.030;2023-07-09T08:03:14;102232.97;;;25.64
77728;BMP280;68312;53.502;10.030;2023-07-09T08:05:39;102236.41;;;25.72
77728;BMP280;68312;53.502;10.030;2023-07-09T08:08:06;102233.69;;;25.82
77728;BMP280;68312;53.502;10.030;2023-07-09T08:10:31;102233.25;;;25.97
77728;BMP280;68312;53.502;10.030;2023-07-09T08:12:57;102233.16;;;26.28
77728;BMP280;68312;53.502;10.030;2023-07-09T08:15:25;102229.94;;;26.60
77728;BMP280;68312;53.502;10.030;2023-07-09T08:17:51;102236.06;;;26.68
77728;BMP280;68312;53.502;10.030;2023-07-09T08:20:16;102229.81;;;26.81
77728;BMP280;68312;53.502;10.030;2023-07-09T08:22:43;102226.94;;;27.08
77728;BMP280;68312;53.502;10.030;2023-07-09T08:25:09;102229.06;;;27.27
77728;BMP280;68312;53.502;10.030;2023-07-09T08:27:34;102228.97;;;27.40
77728;BMP280;68312;53.502;10.030;2023-07-09T08:30:00;102220.72;;;27.54
77728;BMP280;68312;53.502;10.030;2023-07-09T08:32:25;102229.09;;;27.66
77728;BMP280;68312;53.502;10.030;2023-07-09T08:34:50;102231.53;;;27.90
77728;BMP280;68312;53.502;10.030;2023-07-09T08:37:16;102218.44;;;28.18
77728;BMP280;68312;53.502;10.030;2023-07-09T08:39:41;102223.84;;;28.48
77728;BMP280;68312;53.502;10.030;2023-07-09T08:42:11;102221.47;;;28.76
77728;BMP280;68312;53.502;10.030;2023-07-09T08:47:18;102211.81;;;29.99
77728;BMP280;68312;53.502;10.030;2023-07-09T08:50:03;102208.91;;;30.57
77728;BMP280;68312;53.502;10.030;2023-07-09T08:52:35;102204.97;;;31.05
77728;BMP280;68312;53.502;10.030;2023-07-09T08:55:20;102205.13;;;31.81
77728;BMP280;68312;53.502;10.030;2023-07-09T08:57:48;102204.34;;;32.05
77728;BMP280;68312;53.502;10.030;2023-07-09T09:00:35;102201.28;;;32.40
77728;BMP280;68312;53.502;10.030;2023-07-09T09:05:49;102199.13;;;32.81
77728;BMP280;68312;53.502;10.030;2023-07-09T09:08:45;102194.00;;;32.83
77728;BMP280;68312;53.502;10.030;2023-07-09T09:11:31;102195.28;;;32.90
77728;BMP280;68312;53.502;10.030;2023-07-09T09:14:18;102187.78;;;32.82
77728;BMP280;68312;53.502;10.030;2023-07-09T09:16:49;102197.97;;;32.82
77728;BMP280;68312;53.502;10.030;2023-07-09T09:19:28;102194.03;;;33.04
77728;BMP280;68312;53.502;10.030;2023-07-09T09:22:09;102198.63;;;33.28
77728;BMP280;68312;53.502;10.030;2023-07-09T09:24:49;102194.41;;;33.35
77728;BMP280;68312;53.502;10.030;2023-07-09T09:27:22;102193.47;;;33.30
77728;BMP280;68312;53.502;10.030;2023-07-09T09:29:47;102193.44;;;33.51
77728;BMP280;68312;53.502;10.030;2023-07-09T09:32:27;102188.19;;;33.35
77728;BMP280;68312;53.502;10.030;2023-07-09T09:34:57;102175.34;;;33.35
77728;BMP280;68312;53.502;10.030;2023-07-09T09:37:31;102183.72;;;32.99
77728;BMP280;68312;53.502;10.030;2023-07-09T09:39:59;102175.16;;;32.42
77728;BMP280;68312;53.502;10.030;2023-07-09T09:42:25;102184.13;;;32.19
77728;BMP280;68312;53.502;10.030;2023-07-09T09:44:54;102185.19;;;32.79
77728;BMP280;68312;53.502;10.030;2023-07-09T09:47:20;102176.81;;;33.07
77728;BMP280;68312;53.502;10.030;2023-07-09T09:49:46;102173.13;;;33.22
77728;BMP280;68312;53.502;10.030;2023-07-09T09:52:17;102170.50;;;33.39
77728;BMP280;68312;53.502;10.030;2023-07-09T09:54:48;102183.56;;;33.74
77728;BMP280;68312;53.502;10.030;2023-07-09T09:57:21;102178.91;;;33.83
77728;BMP280;68312;53.502;10.030;2023-07-09T09:59:48;102184.97;;;33.87
77728;BMP280;68312;53.502;10.030;2023-07-09T10:02:20;102184.25;;;33.96
77728;BMP280;68312;53.502;10.030;2023-07-09T10:04:47;102192.66;;;34.18
77728;BMP280;68312;53.502;10.030;2023-07-09T10:07:22;102189.06;;;33.92
77728;BMP280;68312;53.502;10.030;2023-07-09T10:09:51;102163.72;;;33.74
77728;BMP280;68312;53.502;10.030;2023-07-09T10:12:37;102173.66;;;34.06
77728;BMP280;68312;53.502;10.030;2023-07-09T10:16:05;102172.06;;;34.44
77728;BMP280;68312;53.502;10.030;2023-07-09T10:19:19;102168.28;;;34.41
77728;BMP280;68312;53.502;10.030;2023-07-09T10:22:02;102181.00;;;34.18
77728;BMP280;68312;53.502;10.030;2023-07-09T10:25:09;102189.63;;;34.17
77728;BMP280;68312;53.502;10.030;2023-07-09T10:30:30;102184.44;;;34.10
77728;BMP280;68312;53.502;10.030;2023-07-09T10:33:11;102181.38;;;33.90
77728;BMP280;68312;53.502;10.030;2023-07-09T10:35:58;102173.81;;;34.03
77728;BMP280;68312;53.502;10.030;2023-07-09T10:42:03;102166.31;;;34.77
77728;BMP280;68312;53.502;10.030;2023-07-09T10:44:41;102163.72;;;34.74
77728;BMP280;68312;53.502;10.030;2023-07-09T10:49:59;102161.72;;;35.01
77728;BMP280;68312;53.502;10.030;2023-07-09T10:52:32;102164.44;;;35.01
77728;BMP280;68312;53.502;10.030;2023-07-09T10:57:58;102150.06;;;34.83
77728;BMP280;68312;53.502;10.030;2023-07-09T11:00:34;102159.56;;;35.13
77728;BMP280;68312;53.502;10.030;2023-07-09T11:03:08;102156.09;;;35.04
77728;BMP280;68312;53.502;10.030;2023-07-09T11:05:40;102155.94;;;35.07
77728;BMP280;68312;53.502;10.030;2023-07-09T11:08:12;102154.75;;;35.00
77728;BMP280;68312;53.502;10.030;2023-07-09T11:14:46;102149.59;;;34.84
77728;BMP280;68312;53.502;10.030;2023-07-09T11:17:19;102152.31;;;35.02
77728;BMP280;68312;53.502;10.030;2023-07-09T11:19:48;102147.63;;;34.93
77728;BMP280;68312;53.502;10.030;2023-07-09T11:22:25;102148.50;;;35.48
77728;BMP280;68312;53.502;10.030;2023-07-09T11:25:14;102142.31;;;35.39
77728;BMP280;68312;53.502;10.030;2023-07-09T11:28:03;102137.22;;;35.55
77728;BMP280;68312;53.502;10.030;2023-07-09T11:30:31;102134.44;;;35.32
77728;BMP280;68312;53.502;10.030;2023-07-09T11:33:04;102135.25;;;35.56
77728;BMP280;68312;53.502;10.030;2023-07-09T11:35:46;102118.50;;;34.82
77728;BMP280;68312;53.502;10.030;2023-07-09T11:38:22;102128.59;;;34.99
77728;BMP280;68312;53.502;10.030;2023-07-09T11:40:51;102133.56;;;35.27
77728;BMP280;68312;53.502;10.030;2023-07-09T11:43:34;102116.66;;;35.69
77728;BMP280;68312;53.502;10.030;2023-07-09T11:46:14;102119.78;;;35.76
77728;BMP280;68312;53.502;10.030;2023-07-09T11:48:44;102118.91;;;35.93
77728;BMP280;68312;53.502;10.030;2023-07-09T11:51:16;102110.09;;;35.75
77728;BMP280;68312;53.502;10.030;2023-07-09T11:53:53;102110.69;;;35.70
77728;BMP280;68312;53.502;10.030;2023-07-09T11:56:24;102108.25;;;35.72
77728;BMP280;68312;53.502;10.030;2023-07-09T11:58:57;102115.66;;;36.03
77728;BMP280;68312;53.502;10.030;2023-07-09T12:01:28;102106.34;;;35.64
77728;BMP280;68312;53.502;10.030;2023-07-09T12:03:59;102110.38;;;35.77
77728;BMP280;68312;53.502;10.030;2023-07-09T12:06:29;102102.47;;;35.79
77728;BMP280;68312;53.502;10.030;2023-07-09T12:08:57;102097.75;;;35.79
77728;BMP280;68312;53.502;10.030;2023-07-09T12:13:50;102091.47;;;36.39
77728;BMP280;68312;53.502;10.030;2023-07-09T12:16:26;102097.16;;;36.35
77728;BMP280;68312;53.502;10.030;2023-07-09T12:18:53;102088.94;;;36.35
77728;BMP280;68312;53.502;10.030;2023-07-09T12:21:20;102092.75;;;36.15
77728;BMP280;68312;53.502;10.030;2023-07-09T12:23:47;102081.63;;;36.18
77728;BMP280;68312;53.502;10.030;2023-07-09T12:26:16;102084.56;;;35.92
77728;BMP280;68312;53.502;10.030;2023-07-09T12:28:49;102077.66;;;35.27
77728;BMP280;68312;53.502;10.030;2023-07-09T12:31:24;102078.03;;;34.54
77728;BMP280;68312;53.502;10.030;2023-07-09T12:33:54;102077.72;;;34.43
77728;BMP280;68312;53.502;10.030;2023-07-09T12:36:23;102072.25;;;34.43
77728;BMP280;68312;53.502;10.030;2023-07-09T12:38:55;102069.81;;;34.45
77728;BMP280;68312;53.502;10.030;2023-07-09T12:41:28;102070.56;;;34.63
77728;BMP280;68312;53.502;10.030;2023-07-09T12:44:00;102058.59;;;34.52
77728;BMP280;68312;53.502;10.030;2023-07-09T12:46:25;102070.41;;;34.66
77728;BMP280;68312;53.502;10.030;2023-07-09T12:48:54;102065.06;;;34.81
77728;BMP280;68312;53.502;10.030;2023-07-09T12:51:24;102056.97;;;35.35
77728;BMP280;68312;53.502;10.030;2023-07-09T12:54:13;102050.31;;;35.73
77728;BMP280;68312;53.502;10.030;2023-07-09T12:56:41;102064.53;;;35.86
77728;BMP280;68312;53.502;10.030;2023-07-09T12:59:19;102056.41;;;35.77
77728;BMP280;68312;53.502;10.030;2023-07-09T13:04:34;102062.38;;;35.44
77728;BMP280;68312;53.502;10.030;2023-07-09T13:07:03;102054.69;;;35.34
77728;BMP280;68312;53.502;10.030;2023-07-09T13:09:29;102053.78;;;35.28
77728;BMP280;68312;53.502;10.030;2023-07-09T13:11:56;102047.50;;;35.45
77728;BMP280;68312;53.502;10.030;2023-07-09T13:14:27;102046.25;;;35.23
77728;BMP280;68312;53.502;10.030;2023-07-09T13:17:03;102057.84;;;35.87
77728;BMP280;68312;53.502;10.030;2023-07-09T13:19:30;102054.72;;;36.17
77728;BMP280;68312;53.502;10.030;2023-07-09T13:21:55;102049.28;;;35.94
77728;BMP280;68312;53.502;10.030;2023-07-09T13:24:24;102051.56;;;35.95
77728;BMP280;68312;53.502;10.030;2023-07-09T13:26:52;102040.94;;;36.26
77728;BMP280;68312;53.502;10.030;2023-07-09T13:29:19;102033.38;;;36.49
77728;BMP280;68312;53.502;10.030;2023-07-09T13:31:46;102036.91;;;36.35
77728;BMP280;68312;53.502;10.030;2023-07-09T13:36:48;102033.00;;;36.28
77728;BMP280;68312;53.502;10.030;2023-07-09T13:39:15;102038.94;;;36.40
77728;BMP280;68312;53.502;10.030;2023-07-09T13:41:43;102034.72;;;36.39
77728;BMP280;68312;53.502;10.030;2023-07-09T13:44:16;102031.41;;;36.35
77728;BMP280;68312;53.502;10.030;2023-07-09T13:46:43;102035.34;;;36.20
77728;BMP280;68312;53.502;10.030;2023-07-09T13:49:15;102033.72;;;36.14
77728;BMP280;68312;53.502;10.030;2023-07-09T13:51:44;102036.31;;;36.32
77728;BMP280;68312;53.502;10.030;2023-07-09T13:54:19;102034.31;;;36.04
77728;BMP280;68312;53.502;10.030;2023-07-09T13:56:48;102034.59;;;36.20
77728;BMP280;68312;53.502;10.030;2023-07-09T13:59:19;102031.00;;;36.42
77728;BMP280;68312;53.502;10.030;2023-07-09T14:01:48;102036.09;;;36.49
77728;BMP280;68312;53.502;10.030;2023-07-09T14:04:16;102032.84;;;35.94
77728;BMP280;68312;53.502;10.030;2023-07-09T14:06:43;102027.44;;;35.16
77728;BMP280;68312;53.502;10.030;2023-07-09T14:09:11;102024.09;;;35.12
77728;BMP280;68312;53.502;10.030;2023-07-09T14:11:43;102029.44;;;35.07
77728;BMP280;68312;53.502;10.030;2023-07-09T14:14:22;102021.06;;;34.61
77728;BMP280;68312;53.502;10.030;2023-07-09T14:16:50;102014.09;;;34.69
77728;BMP280;68312;53.502;10.030;2023-07-09T14:19:19;102010.72;;;34.74
77728;BMP280;68312;53.502;10.030;2023-07-09T14:21:47;101992.25;;;35.09
77728;BMP280;68312;53.502;10.030;2023-07-09T14:24:19;101994.41;;;35.51
77728;BMP280;68312;53.502;10.030;2023-07-09T14:26:54;101985.56;;;35.33
77728;BMP280;68312;53.502;10.030;2023-07-09T14:29:22;101983.22;;;35.64
77728;BMP280;68312;53.502;10.030;2023-07-09T14:31:48;101985.09;;;35.58
77728;BMP280;68312;53.502;10.030;2023-07-09T14:34:21;101972.81;;;35.76